Search for airport 
image banner adimage banner adimage banner ad
image banner ad

6PS0 - Ellwood City Hospital

Located in Ellwood City, United States

ICAO - 6PS0, IATA -

Data provided by Airmate  

General information

Coordinates: N40°52'8" W80°16'32"
Elevation is 965 feet MSL.
Magnetic variation is -07° East
View others Airports in Pennsylvania

Operational data

Special qualification required
Current time UTC:
Current local time:
Weather at : KBVI - Beaver County ( 14 km )
METAR: KBVI 182355Z AUTO 00000KT 10SM CLR 23/07 A3028 RMK AO2 T02330073
TAF: KBVI 182320Z 1900/1924 17003KT P6SM SCT250
View NOTAMs / SUP AIP / TFR affecting this airport [VIEW]
Communications frequencies: [VIEW]

Runways:

Airport contact information

Address: Ellwood City United States

Satellite view of 6PS0